Moose, WY

7:58 PM MDT on August 28, 2014 (GMT -0600)
Driggs | Change Station
CLOSE
Current Station
Airport
Location: Driggs,
Elevation: 6227 ft
Nearby Weather Stations

Elev 6227 ft 43.74 °N, 111.10 °W | Updated 1 hour ago

Clear
Clear
74 °F
Feels Like 74 °F
N
10
Wind Variable Wind from WSW

Today
High -- | Low -- °F
--% Chance of Precip.
Yesterday
High -- | Low -- °F
Precip. -- in
6:42 AM 8:05 PM
Waxing Crescent, 11% visible
Pressure 29.97 in
Visibility 10.0 miles
Clouds Clear
Dew Point 44 °F
Humidity 34%
Rainfall 0.00 in
Snow Depth Not available.
UV 1 out of 12
Pollen 8.60 out of 12
Air Quality Not available.
Flu Activity Not available.
METAR KDIJ 290056Z AUTO 24009KT 10SM CLR 23/07 A3019 RMK AO2 T02330066 SLP149

More Conditions Fewer Conditions

Pressure 29.97 in
Visibility 10.0 miles
Clouds Clear
Dew Point 44 °F
Humidity 34%
Rainfall 0.00 in
Snow Depth Not available.
UV 1 out of 12
Pollen 8.60 out of 12
Air Quality Not available.
Flu Activity Not available.
METAR KDIJ 290056Z AUTO 24009KT 10SM CLR 23/07 A3019 RMK AO2 T02330066 SLP149

More Conditions Fewer Conditions

10-Day Weather Forecast

Almanac

Astronomy

Aug. 28, 2014 Rise Set
Actual Time 6:42 AM MDT 8:05 PM MDT
Civil Twilight 6:12 AM MDT 8:35 PM MDT
Nautical Twilight 5:36 AM MDT 9:11 PM MDT
Astronomical Twilight 4:57 AM MDT 9:49 PM MDT
Moon 9:45 AM MDT (8/28) 9:23 PM MDT (8/28)
Length of Visible Light 14h 23m
Length of Day
13h 23m
Tomorrow will be 2m 52s shorter.
Waxing Crescent, 11% of the Moon is Illuminated
Today
Waxing Crescent
Sep 2
First Quarter
Sep 8
Full
Sep 15
Last Quarter
Sep 24
New

Today's Extremes

State Highs State Lows

Community

WunderPhotos

Upload Photos

1,748,131 photos uploaded!

Nearby

Snow Depth

Station Depth Elevation
Phillips Bench 0 in 8200 ft
Thumb Divide 0 in 7980 ft
Gros Ventre Summit 1 in 8750 ft
Gunsight Pass 1 in 9820 ft
Loomis Park 0 in 8240 ft

Earthquake Activity

City Distance Mag. Time & Date
No recent earthquake activity has been reported nearby.
Minimum magnitude displayed is 2.5.

Coastal Water Temperatures

Place Temperature
No Stations Reporting

Nearby Weather Stations